Flight Track Log - Related Links

Times and Time Zones

All times are in EDT time to prevent confusion due to time zone crossing. See the UCA4838 flight status page for this flight to view local times or setup timezone preferences in your user account.

Time Position Orientation Groundspeed Altitude Reporting Facility
EDT Latitude Longitude Course Direction KTS MPH feet Rate Location/Type
Thu 06:05:58 AM 43.1014 -77.6886 124° Southeast 135 155 1,200  Level Cleveland Center
Thu 06:07:11 AM 43.0647 -77.6447 139° Southeast 179 206 3,100 1,532 Climbing Cleveland Center
Thu 06:08:19 AM 43.0425 -77.5833 116° Southeast 172 198 4,800 1,547 Climbing Cleveland Center
Thu 06:09:19 AM 43.0200 -77.5247 118° Southeast 172 198 6,400 1,550 Climbing Cleveland Center
Thu 06:10:19 AM 42.9975 -77.4606 116° Southeast 178 205 7,900 1,500 Climbing Cleveland Center
Thu 06:11:00 AM 42.8812 -77.1289 124° Southeast  Level FlightAware Approximate
Thu 06:11:19 AM 42.9728 -77.3994 119° Southeast 178 205 9,400  Level Cleveland Center
Thu 06:12:19 AM 42.9503 -77.3325 115° Southeast 185 213 10,000 300 Climbing Cleveland Center
Thu 06:13:19 AM 42.9186 -77.2489 117° Southeast 211 243 10,000  Level Cleveland Center
Thu 06:14:19 AM 42.8828 -77.1603 119° Southeast 246 283 10,000 533 Level Cleveland Center
Thu 06:16:19 AM 42.8169 -76.9736 116° Southeast 274 315 11,600 829 Climbing New York Center
Thu 06:17:20 AM 42.7836 -76.8939 120° Southeast 253 291 12,500 694 Climbing New York Center
Thu 06:18:20 AM 42.7481 -76.8144 121° Southeast 248 285 13,000 330 Climbing New York Center
Thu 06:18:51 AM 42.7242 -76.7733 128° Southeast 246 283 13,000  Level Boston Center
Thu 06:19:51 AM 42.6839 -76.6831 121° Southeast 252 290 13,000  Level Boston Center
Thu 06:20:51 AM 42.6436 -76.5869 120° Southeast 276 318 13,000  Level Boston Center
Thu 06:21:51 AM 42.5992 -76.4908 122° Southeast 290 334 13,000  Level Boston Center
Thu 06:22:52 AM 42.5567 -76.3950 121° Southeast 290 334 13,000  Level Boston Center
Thu 06:23:53 AM 42.5161 -76.3022 121° Southeast 290 334 13,000  Level Boston Center
Thu 06:24:51 AM 42.4736 -76.2039 120° Southeast 290 334 13,000  Level Boston Center
Thu 06:25:51 AM 42.4306 -76.1142 123° Southeast 290 334 13,000  Level Boston Center
Thu 06:26:53 AM 42.3858 -76.0158 122° Southeast 302 348 13,000  Level Boston Center
Thu 06:27:53 AM 42.3408 -75.9150 121° Southeast 295 339 13,000  Level Boston Center
Thu 06:28:51 AM 42.2978 -75.8283 124° Southeast 295 339 13,000  Level Boston Center
Thu 06:29:53 AM 42.2569 -75.7250 118° Southeast 295 339 13,000  Level Boston Center
Thu 06:30:53 AM 42.2117 -75.6275 122° Southeast 307 353 13,000  Level Boston Center
Thu 06:31:51 AM 42.1664 -75.5356 124° Southeast 307 353 13,000  Level Boston Center
Thu 06:32:53 AM 42.1211 -75.4381 122° Southeast 307 353 13,000  Level Boston Center
Thu 06:33:51 AM 42.0756 -75.3464 124° Southeast 307 353 13,000  Level Boston Center
Thu 06:34:51 AM 42.0364 -75.2467 118° Southeast 307 353 13,000  Level Boston Center
Thu 06:35:51 AM 41.9992 -75.1472 117° Southeast 301 346 13,000  Level Boston Center
Thu 06:36:51 AM 41.9597 -75.0450 117° Southeast 301 346 13,000  Level Boston Center
Thu 06:37:51 AM 41.9264 -74.9544 116° Southeast 301 346 13,000 -600 Level Boston Center
Thu 06:38:51 AM 41.8594 -74.8792 140° Southeast 285 328 11,800 -1,328 Descending Boston Center
Thu 06:39:53 AM 41.7872 -74.8347 155° Southeast 304 350 10,300 -1,600 Descending Boston Center
Thu 06:40:51 AM 41.7072 -74.7842 155° Southeast 299 344 8,600 -1,513 Descending Boston Center
Thu 06:41:52 AM 41.6433 -74.7431 154° Southeast 294 338 7,300 -800 Descending Boston Center
Thu 06:42:51 AM 41.5672 -74.6903 153° Southeast 284 327 7,000 -450 Descending Boston Center
Thu 06:43:52 AM 41.5056 -74.6522 155° Southeast 279 321 6,400 -513 Descending Boston Center
Thu 06:44:48 AM 41.4333 -74.6000 152° Southeast 272 313 6,000 -218 Descending New York TRACON
Thu 06:45:42 AM 41.3667 -74.6167 191° South 264 304 6,000  Level New York TRACON
Thu 06:46:36 AM 41.3167 -74.6333 194° South 255 293 6,000  Level New York TRACON
Thu 06:47:30 AM 41.2500 -74.6000 159° South 254 292 6,000  Level New York TRACON
Thu 06:48:30 AM 41.2000 -74.5333 135° Southeast 253 291 6,000  Level New York TRACON
Thu 06:49:30 AM 41.1333 -74.5500 191° South 253 291 6,000  Level New York TRACON
Thu 06:50:30 AM 41.0667 -74.5833 201° Southwest 251 289 6,000  Level New York TRACON
Thu 06:51:30 AM 41.0000 -74.6000 191° South 247 284 6,000  Level New York TRACON
Thu 06:52:24 AM 40.9500 -74.6333 207° Southwest 247 284 6,000  Level New York TRACON
Thu 06:53:24 AM 40.8833 -74.6333 180° South 249 287 6,000  Level New York TRACON
Thu 06:54:24 AM 40.8167 -74.6167 169° South 247 284 6,000  Level New York TRACON
Thu 06:55:18 AM 40.7500 -74.5833 159° South 251 289 6,000 -211 Level New York TRACON
Thu 06:56:18 AM 40.6833 -74.5333 150° Southeast 260 299 5,600 -526 Descending New York TRACON
Thu 06:57:12 AM 40.6333 -74.5000 153° Southeast 270 311 5,000 -632 Descending New York TRACON
Thu 06:58:12 AM 40.5833 -74.4167 128° Southeast 262 302 4,400 -650 Descending New York TRACON
Thu 06:59:12 AM 40.5500 -74.3500 123° Southeast 254 292 3,700 -750 Descending New York TRACON
Thu 07:00:12 AM 40.5333 -74.2667 105° East 209 241 2,900 -650 Descending New York TRACON
Thu 07:01:12 AM 40.5667 -74.2500 21° North 176 203 2,400 -650 Descending New York TRACON
Thu 07:02:12 AM 40.6167 -74.2167 27° Northeast 174 200 1,600 -850 Descending New York TRACON
Thu 07:03:12 AM 40.6500 -74.1833 37° Northeast 145 167 700 -900 Descending New York TRACON
Thu 07:05:00 AM 40.6833 -74.1667 23° Northeast  Level FlightAware Approximate

Login

Don't have an account? Register now (free) for customized features, flight alerts, and more!